Colburn, Idaho
Current Conditions -  °F | °C
As of 9:35 AM on Monday 22 Dec 2014 (Local Time) from KSZT Reporting Station
Overcast Overcast  
Wind Chill: 31°   Ceiling: 4300
Heat Index: 37°   Visibility: 10mi
Dew Point: 32°   Wind: 8mph
Humidity: 81%   Direction: 210°SSW
Pressure: 30.08"   Gusts: NA
Location:  48.4°N, 116.54°W
Report Text: KSZT 221735Z AUTO 21007KT 10SM OVC043 03/00 A3008 RMK AO2
Loading
Personal Weather Stations






























Interactive Weather Map New forecast layout! Learn more

10-Day Weather Forecast

Advertisements
Track Severe Weather on mobile